SAWG/RGL METAR and TAF weather

Enter ICAO airport designator
Station Type Date Time Source
SAWG METAR 2019/04/25 07:00 UTC NOAA

SAWG 250700Z 14003KT CAVOK 04/02 Q1021


Station Type Date Time Source
SAWG Decoded METAR 2019/04/25 07:00 UTC NOAA

Rio Gallegos Aerodrome, Argentina (SAWG) 51-37S 069-17W 19M
Apr 25, 2019 - 03:00 AM EDT / 2019.04.25 0700 UTC
Wind: from the SE (140 degrees) at 3 MPH (3 KT):0
Visibility: greater than 7 mile(s):0
Temperature: 39 F (4 C)
Dew Point: 35 F (2 C)
Relative Humidity: 86%
Pressure (altimeter): 30.15 in. Hg (1021 hPa)
ob: SAWG 250700Z 14003KT CAVOK 04/02 Q1021
cycle: 7

Station Type Date Time Source
SAWG TAF 2019/04/25 06:06 UTC NOAA

TAF SAWG 250500Z 2506/2606 09005KT 9999 SCT030 TX14/2518Z TN08/2511Z
BECMG 2523/2601 VRB05KT CAVOK

Example: see airport list